Time;durP1;ratioP1;P1;durP2;ratioP2;P2;SDS_P1;SDS_P2;PMS_P1;PMS_P2;Temp;Humidity;BMP_temperature;BMP_pressure;BME280_temperature;BME280_humidity;BME280_pressure;Samples;Min_cycle;Max_cycle;Signal;HPM_P1;HPM_P2
2022/06/09 00:00:56;;;;;;;31.42;11.35;;;15.10;99.90;;;;;;5043425;28;20440;-75
2022/06/09 00:03:27;;;;;;;28.75;11.45;;;15.10;99.90;;;;;;5060604;28;20083;-76
2022/06/09 00:05:53;;;;;;;35.08;12.88;;;15.00;99.90;;;;;;5058135;28;20052;-76
2022/06/09 00:08:19;;;;;;;32.17;11.30;;;14.90;99.90;;;;;;5040975;28;20105;-75
2022/06/09 00:10:54;;;;;;;34.85;12.50;;;15.00;99.90;;;;;;5059973;28;20415;-76
2022/06/09 00:13:20;;;;;;;33.10;13.98;;;14.90;99.90;;;;;;5060286;28;20036;-75
2022/06/09 00:15:45;;;;;;;32.20;11.63;;;14.80;99.90;;;;;;5061758;28;20085;-76
2022/06/09 00:18:11;;;;;;;38.33;12.55;;;14.90;99.90;;;;;;5060179;28;20044;-76
2022/06/09 00:20:37;;;;;;;36.00;10.75;;;14.90;99.90;;;;;;5060011;28;20044;-76
2022/06/09 00:23:02;;;;;;;31.55;11.65;;;15.00;99.90;;;;;;5062118;28;20090;-74
2022/06/09 00:25:28;;;;;;;32.47;11.27;;;15.00;99.90;;;;;;5043130;28;20048;-76
2022/06/09 00:27:54;;;;;;;35.65;13.43;;;15.00;99.90;;;;;;5063643;28;20039;-75
2022/06/09 00:30:20;;;;;;;41.05;11.25;;;15.00;99.90;;;;;;5063183;28;20048;-74
2022/06/09 00:32:46;;;;;;;43.05;15.18;;;14.70;99.90;;;;;;5064311;28;20047;-76
2022/06/09 00:35:12;;;;;;;40.38;13.88;;;14.90;99.90;;;;;;5063600;28;20044;-76
2022/06/09 00:37:38;;;;;;;35.08;13.65;;;14.80;99.90;;;;;;5046997;28;20571;-74
2022/06/09 00:40:06;;;;;;;36.83;11.95;;;14.80;99.90;;;;;;5046163;28;20143;-76
2022/06/09 00:42:34;;;;;;;34.10;14.73;;;14.90;99.90;;;;;;5061900;28;20048;-77
2022/06/09 00:45:24;;;;;;;32.85;11.75;;;14.70;99.90;;;;;;5063404;28;20101;-76
2022/06/09 00:47:52;;;;;;;37.75;14.95;;;14.90;99.90;;;;;;5062016;28;20052;-76
2022/06/09 00:50:21;;;;;;;32.30;12.32;;;14.80;99.90;;;;;;5063313;28;20049;-76
2022/06/09 00:52:57;;;;;;;41.72;15.00;;;14.70;99.90;;;;;;5064379;28;20056;-76
2022/06/09 00:55:26;;;;;;;36.40;15.13;;;14.80;99.90;;;;;;5062703;28;20055;-76
2022/06/09 00:58:11;;;;;;;33.25;14.00;;;14.70;99.90;;;;;;5027280;28;20056;-76
2022/06/09 01:00:50;;;;;;;43.05;14.68;;;14.80;99.90;;;;;;5061304;28;20045;-78
2022/06/09 01:03:18;;;;;;;44.55;17.27;;;14.60;99.90;;;;;;5046451;28;20033;-77
2022/06/09 01:05:45;;;;;;;34.97;15.13;;;14.80;99.90;;;;;;5062867;28;20111;-77
2022/06/09 01:08:12;;;;;;;46.88;16.15;;;14.60;99.90;;;;;;5063515;28;20407;-77
2022/06/09 01:10:38;;;;;;;40.97;14.60;;;14.80;99.90;;;;;;5063438;28;20040;-77
2022/06/09 01:13:05;;;;;;;42.55;15.77;;;14.80;99.90;;;;;;5063107;28;20048;-77
2022/06/09 01:16:07;;;;;;;30.10;13.32;;;14.80;99.90;;;;;;5046815;28;20064;-77
2022/06/09 01:19:04;;;;;;;31.73;14.70;;;14.60;99.90;;;;;;5030555;28;20040;-77
2022/06/09 01:22:25;;;;;;;40.13;15.05;;;14.70;99.90;;;;;;5031429;28;20088;-77
2022/06/09 01:25:00;;;;;;;28.80;13.38;;;14.70;99.90;;;;;;5051571;28;20039;-77
2022/06/09 01:27:47;;;;;;;41.60;14.55;;;14.50;99.90;;;;;;5027946;28;20572;-78
2022/06/09 01:30:20;;;;;;;41.55;12.43;;;14.50;99.90;;;;;;5062400;28;20040;-77
2022/06/09 01:33:00;;;;;;;46.05;15.02;;;14.40;99.90;;;;;;5064554;28;21217;-77
2022/06/09 01:35:44;;;;;;;;;;;14.50;99.90;;;;;;5043246;28;20048;-77
2022/06/09 01:38:10;;;;;;;42.42;15.23;;;14.30;99.90;;;;;;5044014;28;19920;-76
2022/06/09 01:40:36;;;;;;;33.03;11.48;;;14.40;99.90;;;;;;5051976;28;20139;-76
2022/06/09 01:43:04;;;;;;;25.25;11.90;;;14.40;99.90;;;;;;5059372;28;20036;-76
2022/06/09 01:45:29;;;;;;;36.45;13.60;;;14.20;99.90;;;;;;5061688;28;20040;-77
2022/06/09 01:48:06;;;;;;;38.20;14.77;;;14.20;99.90;;;;;;5062999;28;20594;-77
2022/06/09 01:51:11;;;;;;;52.33;16.27;;;14.20;99.90;;;;;;5061251;28;20056;-76
2022/06/09 01:53:37;;;;;;;31.27;13.15;;;14.20;99.90;;;;;;5053827;28;20060;-76
2022/06/09 01:56:11;;;;;;;31.90;14.55;;;14.30;99.90;;;;;;5063821;28;20360;-75
2022/06/09 01:59:00;;;;;;;31.48;11.80;;;14.30;99.90;;;;;;5060225;28;20119;-76
2022/06/09 02:01:33;;;;;;;36.70;12.38;;;14.20;99.90;;;;;;5052843;28;20484;-76
2022/06/09 02:04:04;;;;;;;30.98;12.65;;;14.20;99.90;;;;;;5041703;28;20044;-77
2022/06/09 02:06:31;;;;;;;35.92;13.27;;;14.10;99.90;;;;;;5061949;28;20048;-76
2022/06/09 02:08:57;;;;;;;43.10;14.55;;;14.30;99.90;;;;;;5045845;28;20055;-77
2022/06/09 02:11:23;;;;;;;35.20;12.60;;;14.20;99.90;;;;;;5062690;28;20044;-76
2022/06/09 02:13:51;;;;;;;28.38;13.13;;;14.20;99.90;;;;;;5044617;28;20090;-76
2022/06/09 02:16:21;;;;;;;39.15;13.65;;;14.10;99.90;;;;;;5062459;28;20049;-77
2022/06/09 02:18:50;;;;;;;34.80;13.73;;;14.00;99.90;;;;;;5062141;28;20087;-77
2022/06/09 02:21:42;;;;;;;24.40;12.63;;;14.10;99.90;;;;;;5061357;28;20040;-76
2022/06/09 02:24:08;;;;;;;29.42;11.55;;;14.00;99.90;;;;;;5055954;28;20052;-77
2022/06/09 02:26:34;;;;;;;38.35;14.55;;;14.10;99.90;;;;;;5044916;28;20404;-76
2022/06/09 02:29:00;;;;;;;34.65;14.52;;;14.00;99.90;;;;;;5041466;28;20132;-77
2022/06/09 02:31:27;;;;;;;25.23;11.70;;;13.80;99.90;;;;;;5044036;28;20060;-76
2022/06/09 02:33:54;;;;;;;31.15;13.60;;;13.90;99.90;;;;;;5035629;28;20131;-77
2022/06/09 02:36:20;;;;;;;27.80;12.07;;;13.90;99.90;;;;;;5060088;28;20400;-75
2022/06/09 02:38:45;;;;;;;25.92;13.93;;;14.00;99.90;;;;;;5046234;28;20048;-76
2022/06/09 02:41:12;;;;;;;33.03;13.20;;;13.80;99.90;;;;;;5060317;28;20513;-76
2022/06/09 02:43:37;;;;;;;35.05;12.60;;;14.00;99.90;;;;;;5056916;28;20498;-76
2022/06/09 02:46:04;;;;;;;28.52;13.30;;;14.10;99.90;;;;;;5062041;28;20044;-76
2022/06/09 02:48:30;;;;;;;33.08;15.23;;;14.00;99.90;;;;;;5060924;28;20348;-77
2022/06/09 02:50:56;;;;;;;39.40;16.02;;;13.80;99.90;;;;;;5062740;28;20182;-76
2022/06/09 02:53:23;;;;;;;26.42;13.60;;;14.00;99.90;;;;;;5058387;28;20160;-77
2022/06/09 02:55:49;;;;;;;28.17;13.93;;;14.00;99.90;;;;;;5045542;28;20454;-77
2022/06/09 02:58:16;;;;;;;25.63;12.88;;;14.00;99.90;;;;;;5059337;28;20052;-78
2022/06/09 03:00:42;;;;;;;31.02;12.98;;;14.00;99.90;;;;;;5058606;28;20036;-77
2022/06/09 03:03:12;;;;;;;36.25;16.15;;;14.00;99.90;;;;;;5061385;28;20586;-77
2022/06/09 03:05:38;;;;;;;36.08;13.65;;;13.80;99.90;;;;;;5028011;28;20567;-77
2022/06/09 03:08:06;;;;;;;29.52;14.10;;;14.00;99.90;;;;;;5062947;28;20402;-77
2022/06/09 03:10:33;;;;;;;22.55;12.13;;;13.80;99.90;;;;;;5044436;28;20345;-77
2022/06/09 03:12:59;;;;;;;29.10;12.65;;;14.00;99.90;;;;;;5058940;28;20040;-77
2022/06/09 03:15:25;;;;;;;33.15;12.40;;;14.00;99.90;;;;;;5056337;28;20459;-77
2022/06/09 03:17:51;;;;;;;27.05;12.60;;;13.90;99.90;;;;;;5023801;28;20469;-76
2022/06/09 03:20:27;;;;;;;26.10;12.65;;;13.80;99.90;;;;;;5060899;28;20429;-77
2022/06/09 03:22:53;;;;;;;24.85;13.02;;;13.70;99.90;;;;;;5061493;28;20449;-76
2022/06/09 03:25:19;;;;;;;22.80;11.23;;;13.80;99.90;;;;;;5062519;28;20131;-76
2022/06/09 03:27:45;;;;;;;25.63;12.55;;;13.90;99.90;;;;;;5060489;28;20123;-76
2022/06/09 03:30:11;;;;;;;18.48;11.63;;;13.90;99.90;;;;;;5059369;28;20040;-77
2022/06/09 03:32:37;;;;;;;22.17;11.63;;;14.00;99.90;;;;;;5060711;28;20051;-78
2022/06/09 03:35:04;;;;;;;18.60;9.82;;;13.70;99.90;;;;;;5046997;28;20406;-76
2022/06/09 03:37:30;;;;;;;20.45;11.52;;;13.80;99.90;;;;;;5062636;28;20048;-77
2022/06/09 03:39:56;;;;;;;21.15;11.45;;;13.80;99.90;;;;;;5061594;28;20050;-77
2022/06/09 03:42:21;;;;;;;21.50;12.27;;;13.80;99.90;;;;;;5059622;28;20491;-77
2022/06/09 03:44:47;;;;;;;18.80;10.93;;;14.00;99.90;;;;;;5061335;28;20403;-78
2022/06/09 03:47:13;;;;;;;26.65;13.05;;;13.90;99.90;;;;;;5059261;28;20483;-77
2022/06/09 03:49:40;;;;;;;25.23;12.63;;;13.90;99.90;;;;;;5042216;28;20570;-77
2022/06/09 03:52:06;;;;;;;29.10;11.38;;;13.80;99.90;;;;;;5061362;28;20391;-78
2022/06/09 03:54:32;;;;;;;19.75;11.27;;;13.80;99.90;;;;;;5027314;28;20057;-77
2022/06/09 03:56:57;;;;;;;21.35;12.10;;;14.00;99.90;;;;;;5041056;28;20118;-77
2022/06/09 03:59:23;;;;;;;19.98;13.85;;;13.90;99.90;;;;;;5056999;28;20128;-76
2022/06/09 04:01:49;;;;;;;23.13;12.10;;;14.00;99.90;;;;;;5064906;28;20052;-76
2022/06/09 04:04:14;;;;;;;28.75;14.88;;;13.90;99.90;;;;;;5065855;28;20399;-77
2022/06/09 04:06:41;;;;;;;17.90;12.82;;;14.00;99.90;;;;;;5064605;28;20131;-77
2022/06/09 04:09:07;;;;;;;17.63;13.60;;;13.90;99.90;;;;;;5046846;28;20052;-76
2022/06/09 04:11:32;;;;;;;24.90;15.15;;;13.80;99.90;;;;;;5045435;28;20044;-77
2022/06/09 04:13:59;;;;;;;27.05;17.80;;;14.10;99.90;;;;;;5046177;28;20520;-77
2022/06/09 04:16:31;;;;;;;27.10;18.67;;;13.90;99.90;;;;;;5064723;28;20491;-77
2022/06/09 04:19:00;;;;;;;22.38;16.30;;;13.90;99.90;;;;;;5065530;28;20547;-80
2022/06/09 04:21:27;;;;;;;24.50;17.00;;;13.90;99.90;;;;;;5061866;28;20039;-79
2022/06/09 04:23:54;;;;;;;33.00;21.55;;;14.00;99.90;;;;;;5047742;28;20044;-78
2022/06/09 04:26:22;;;;;;;30.92;21.55;;;13.80;99.90;;;;;;5062841;28;20093;-77
2022/06/09 04:28:48;;;;;;;33.15;24.90;;;14.10;99.90;;;;;;5064981;28;20123;-77
2022/06/09 04:31:14;;;;;;;37.40;23.45;;;13.80;99.90;;;;;;5063161;28;20517;-77
2022/06/09 04:33:41;;;;;;;35.72;23.50;;;14.00;99.90;;;;;;5064898;28;20469;-77
2022/06/09 04:36:08;;;;;;;34.20;24.67;;;14.10;99.90;;;;;;5063948;28;20040;-77
2022/06/09 04:38:36;;;;;;;34.03;24.02;;;14.10;99.90;;;;;;5065128;28;20041;-77
2022/06/09 04:41:10;;;;;;;37.60;26.13;;;14.10;99.90;;;;;;5061568;28;20048;-77
2022/06/09 04:43:37;;;;;;;37.42;25.45;;;14.20;99.90;;;;;;5064972;28;20048;-77
2022/06/09 04:46:04;;;;;;;33.00;22.95;;;14.20;99.90;;;;;;5061556;28;20621;-76
2022/06/09 04:48:30;;;;;;;34.95;24.80;;;14.20;99.90;;;;;;5063834;28;20141;-77
2022/06/09 04:50:56;;;;;;;37.08;24.73;;;14.10;99.90;;;;;;5062924;28;20039;-77
2022/06/09 04:53:22;;;;;;;36.08;22.88;;;14.10;99.90;;;;;;5062015;28;20460;-78
2022/06/09 04:55:49;;;;;;;36.90;24.67;;;14.10;99.90;;;;;;5030147;28;20041;-74
2022/06/09 04:58:15;;;;;;;42.38;23.60;;;14.10;99.90;;;;;;5063529;28;20052;-76
2022/06/09 05:00:41;;;;;;;36.47;22.92;;;14.00;99.90;;;;;;5063329;28;20044;-77
2022/06/09 05:03:11;;;;;;;37.53;23.77;;;14.20;99.90;;;;;;5063951;28;20049;-77
2022/06/09 05:05:38;;;;;;;;;;;14.30;99.90;;;;;;5046485;28;20068;-77
2022/06/09 05:08:04;;;;;;;35.40;24.63;;;14.10;99.90;;;;;;5046776;28;19927;-77
2022/06/09 05:10:30;;;;;;;39.03;25.83;;;14.20;99.90;;;;;;5063499;28;20713;-76
2022/06/09 05:12:56;;;;;;;32.80;24.58;;;14.20;99.90;;;;;;5061279;28;20036;-76
2022/06/09 05:15:23;;;;;;;36.38;26.35;;;14.20;99.90;;;;;;5063399;28;20049;-76
2022/06/09 05:17:49;;;;;;;36.83;25.83;;;14.00;99.90;;;;;;5063970;28;20044;-75
2022/06/09 05:20:18;;;;;;;34.20;24.05;;;14.10;99.90;;;;;;5043076;28;20055;-77
2022/06/09 05:22:44;;;;;;;37.30;26.02;;;14.20;99.90;;;;;;5045196;28;20495;-76
2022/06/09 05:25:11;;;;;;;35.70;25.42;;;14.10;99.90;;;;;;5038687;28;20055;-77
2022/06/09 05:27:38;;;;;;;36.88;25.20;;;14.20;99.90;;;;;;5059723;28;20479;-76
2022/06/09 05:30:05;;;;;;;35.30;26.27;;;14.20;99.90;;;;;;5062625;28;20051;-75
2022/06/09 05:32:31;;;;;;;28.50;22.08;;;14.30;99.90;;;;;;5046099;28;20041;-75
2022/06/09 05:34:56;;;;;;;33.35;24.02;;;14.30;99.90;;;;;;5063758;28;20098;-76
2022/06/09 05:37:22;;;;;;;23.63;20.80;;;14.40;99.90;;;;;;5045272;28;20102;-76
2022/06/09 05:45:17;;;;;;;24.48;18.95;;;14.40;99.90;;;;;;5059152;28;20136;-76
2022/06/09 05:47:43;;;;;;;26.45;19.42;;;14.40;99.90;;;;;;5044292;28;20119;-76
2022/06/09 05:50:10;;;;;;;25.02;20.00;;;14.50;99.90;;;;;;5062754;28;20128;-75
2022/06/09 05:52:36;;;;;;;26.95;20.10;;;14.50;99.90;;;;;;5063574;28;20091;-76
2022/06/09 05:55:03;;;;;;;28.10;20.08;;;14.70;99.90;;;;;;5062770;28;20049;-76
2022/06/09 05:57:29;;;;;;;23.25;18.65;;;14.80;99.90;;;;;;5043995;28;20052;-76
2022/06/09 05:59:55;;;;;;;22.08;18.63;;;14.70;99.90;;;;;;5062833;28;20526;-76
2022/06/09 06:02:24;;;;;;;21.70;17.88;;;14.80;99.90;;;;;;5061744;28;20075;-76
2022/06/09 06:04:50;;;;;;;22.13;17.35;;;14.80;99.90;;;;;;5054479;28;20064;-75
2022/06/09 06:07:16;;;;;;;20.05;17.85;;;14.80;99.90;;;;;;5062287;28;20086;-77
2022/06/09 06:09:42;;;;;;;19.92;15.68;;;14.80;99.90;;;;;;5058017;28;20713;-77
2022/06/09 06:12:09;;;;;;;20.10;15.57;;;15.00;99.90;;;;;;5061378;28;20037;-78
2022/06/09 06:14:35;;;;;;;18.13;14.65;;;15.00;99.90;;;;;;5056990;28;20070;-77
2022/06/09 06:17:01;;;;;;;18.70;15.70;;;14.80;99.90;;;;;;5031581;28;20098;-76
2022/06/09 06:19:28;;;;;;;17.77;13.98;;;15.10;99.90;;;;;;5057902;28;20045;-77
2022/06/09 06:21:54;;;;;;;16.88;13.38;;;15.10;99.90;;;;;;5058256;28;20033;-77
2022/06/09 06:24:23;;;;;;;17.25;13.15;;;15.10;99.90;;;;;;5062164;28;20101;-76
2022/06/09 06:26:49;;;;;;;20.40;12.35;;;15.00;99.90;;;;;;5042539;28;20131;-76
2022/06/09 06:29:19;;;;;;;15.80;12.75;;;15.20;99.90;;;;;;5051822;28;20056;-79
2022/06/09 06:31:45;;;;;;;14.18;12.70;;;15.00;99.90;;;;;;5053842;28;20123;-79
2022/06/09 06:34:11;;;;;;;14.73;11.00;;;15.10;99.90;;;;;;5061882;28;20453;-80
2022/06/09 06:36:37;;;;;;;12.30;11.00;;;15.30;99.90;;;;;;5063015;28;20040;-80
2022/06/09 06:39:03;;;;;;;10.30;8.98;;;15.20;99.90;;;;;;5060870;28;20748;-77
2022/06/09 06:41:30;;;;;;;10.63;9.52;;;15.20;99.90;;;;;;5045128;28;20055;-79
2022/06/09 06:43:56;;;;;;;10.20;9.20;;;15.20;99.90;;;;;;5060967;28;20079;-74
2022/06/09 06:46:22;;;;;;;12.73;9.68;;;15.20;99.90;;;;;;5063643;28;20749;-78
2022/06/09 06:48:47;;;;;;;15.73;8.68;;;15.40;99.90;;;;;;5062884;28;20047;-79
2022/06/09 06:51:13;;;;;;;12.02;9.63;;;15.60;99.90;;;;;;5062206;28;20044;-81
2022/06/09 06:53:40;;;;;;;10.90;9.73;;;15.80;99.90;;;;;;5061229;28;20060;-80
2022/06/09 06:56:07;;;;;;;13.30;8.05;;;16.20;99.90;;;;;;5061881;28;20048;-80
2022/06/09 06:58:33;;;;;;;11.25;6.22;;;16.80;99.90;;;;;;5060618;28;20120;-82
2022/06/09 07:01:00;;;;;;;7.15;5.72;;;17.40;99.90;;;;;;5057333;28;21057;-85
2022/06/09 07:03:26;;;;;;;10.65;5.45;;;17.70;99.90;;;;;;5063227;28;20036;-79
2022/06/09 07:05:52;;;;;;;8.73;5.90;;;18.80;99.90;;;;;;5061864;28;20041;-80
2022/06/09 07:08:17;;;;;;;9.25;5.55;;;18.40;99.90;;;;;;5062877;28;20033;-80
2022/06/09 07:10:44;;;;;;;9.75;5.05;;;19.40;99.90;;;;;;5062997;28;20040;-85
2022/06/09 07:13:11;;;;;;;5.32;3.85;;;19.00;99.90;;;;;;5062808;28;20044;-83
2022/06/09 07:15:37;;;;;;;7.32;3.65;;;18.90;99.90;;;;;;5062288;28;20044;-79
2022/06/09 07:18:03;;;;;;;4.82;3.05;;;19.50;99.90;;;;;;5061216;28;20048;-76
2022/06/09 07:20:29;;;;;;;4.78;3.20;;;20.60;99.90;;;;;;5058787;28;20036;-82
2022/06/09 07:22:54;;;;;;;5.15;3.35;;;20.80;99.90;;;;;;5054979;28;20090;-82
2022/06/09 07:25:23;;;;;;;9.57;4.20;;;20.60;99.90;;;;;;5054847;28;20077;-79
2022/06/09 07:27:51;;;;;;;3.95;2.55;;;19.90;99.90;;;;;;5061823;28;20032;-79
2022/06/09 07:30:18;;;;;;;10.38;2.92;;;20.60;99.90;;;;;;5062810;28;20052;-81
2022/06/09 07:32:44;;;;;;;4.30;2.10;;;19.80;99.90;;;;;;5054451;28;20048;-80
2022/06/09 07:35:14;;;;;;;4.72;1.63;;;19.60;99.90;;;;;;5062811;28;20071;-79
2022/06/09 07:37:40;;;;;;;6.10;2.03;;;20.50;99.90;;;;;;5066313;28;20063;-76
2022/06/09 07:40:07;;;;;;;3.58;1.60;;;21.20;99.90;;;;;;5064839;28;20048;-80
2022/06/09 07:42:32;;;;;;;3.70;1.40;;;21.30;99.90;;;;;;5064397;28;20044;-80
2022/06/09 07:44:58;;;;;;;4.05;1.10;;;20.50;99.90;;;;;;5066656;28;20553;-81
2022/06/09 07:47:25;;;;;;;7.10;1.45;;;20.00;99.90;;;;;;5065287;28;20058;-80
2022/06/09 07:49:51;;;;;;;5.25;2.63;;;19.30;99.90;;;;;;5066914;28;20082;-77
2022/06/09 07:52:18;;;;;;;4.60;1.35;;;19.30;99.90;;;;;;5066252;28;20040;-78
2022/06/09 07:54:44;;;;;;;3.67;0.93;;;19.00;99.90;;;;;;5048379;28;20083;-78
2022/06/09 07:57:11;;;;;;;3.25;1.17;;;18.80;99.90;;;;;;5060846;28;20055;-79
2022/06/09 07:59:37;;;;;;;15.23;2.97;;;18.90;99.90;;;;;;5066386;28;20051;-79
2022/06/09 08:02:03;;;;;;;3.38;1.15;;;18.80;99.90;;;;;;5045729;28;20052;-79
2022/06/09 08:04:29;;;;;;;11.20;3.63;;;18.90;99.90;;;;;;5029793;28;20586;-79
2022/06/09 08:06:55;;;;;;;5.47;1.25;;;18.70;99.90;;;;;;5066947;28;20051;-78
2022/06/09 08:09:21;;;;;;;4.63;1.42;;;18.80;99.90;;;;;;5029183;28;20040;-79
2022/06/09 08:11:47;;;;;;;6.43;1.17;;;19.00;99.90;;;;;;5062523;28;20495;-79
2022/06/09 08:14:14;;;;;;;10.27;1.58;;;18.70;99.90;;;;;;5062777;28;20048;-81
2022/06/09 08:16:41;;;;;;;4.15;1.00;;;18.50;99.90;;;;;;5065640;28;20388;-76
2022/06/09 08:19:07;;;;;;;4.88;1.88;;;18.20;99.90;;;;;;5064484;28;20107;-78
2022/06/09 08:21:33;;;;;;;9.50;1.70;;;18.20;99.90;;;;;;5061115;28;20040;-77
2022/06/09 08:23:59;;;;;;;5.00;1.10;;;18.50;99.90;;;;;;5045261;28;20045;-78
2022/06/09 08:26:25;;;;;;;4.13;1.55;;;18.40;99.90;;;;;;5061756;28;20044;-77
2022/06/09 08:28:51;;;;;;;12.70;2.28;;;18.70;99.90;;;;;;5061785;28;20110;-78
2022/06/09 08:31:17;;;;;;;10.45;2.25;;;18.50;99.90;;;;;;5065616;28;20041;-78
2022/06/09 08:33:43;;;;;;;6.60;3.15;;;18.30;99.90;;;;;;5056932;28;20139;-81
2022/06/09 08:36:10;;;;;;;9.13;2.20;;;18.50;99.90;;;;;;5066643;28;20276;-78
2022/06/09 08:38:35;;;;;;;3.45;0.82;;;18.80;99.90;;;;;;5039665;28;20053;-79
2022/06/09 08:41:29;;;;;;;6.20;1.67;;;18.60;99.90;;;;;;5045193;28;20118;-78
2022/06/09 08:44:23;;;;;;;5.32;1.65;;;18.60;99.90;;;;;;5065398;28;20036;-79
2022/06/09 08:47:01;;;;;;;7.53;2.47;;;18.40;99.90;;;;;;5045835;28;20047;-78
2022/06/09 08:49:48;;;;;;;13.52;2.75;;;18.00;99.90;;;;;;5044347;28;20040;-80
2022/06/09 08:52:45;;;;;;;9.40;2.38;;;17.90;99.90;;;;;;5065597;28;20041;-81
2022/06/09 08:55:25;;;;;;;11.10;1.85;;;18.10;99.90;;;;;;5049200;28;20036;-81
2022/06/09 08:57:52;;;;;;;12.73;2.33;;;18.40;99.90;;;;;;5064118;28;20033;-79
2022/06/09 09:00:25;;;;;;;8.25;2.63;;;18.70;99.90;;;;;;5041324;28;20104;-80
2022/06/09 09:03:01;;;;;;;6.35;1.58;;;19.00;99.90;;;;;;5068081;28;20064;-79
2022/06/09 09:05:41;;;;;;;9.55;1.63;;;19.20;99.90;;;;;;5070948;28;20144;-78
2022/06/09 09:08:09;;;;;;;5.93;1.30;;;19.30;99.90;;;;;;5063694;28;22034;-76
2022/06/09 09:10:58;;;;;;;14.90;2.17;;;19.70;99.90;;;;;;5073162;28;20080;-78
2022/06/09 09:13:54;;;;;;;7.28;2.10;;;18.90;99.90;;;;;;5068959;28;20036;-79
2022/06/09 09:16:31;;;;;;;8.40;1.85;;;19.20;99.90;;;;;;5063625;28;20048;-75
2022/06/09 09:19:18;;;;;;;7.47;1.98;;;19.00;99.90;;;;;;5064682;28;20059;-77
2022/06/09 09:21:55;;;;;;;6.90;1.95;;;18.60;99.90;;;;;;5007814;28;20174;-78
2022/06/09 09:24:24;;;;;;;6.68;1.65;;;18.20;99.90;;;;;;5047193;28;20059;-80
2022/06/09 09:27:08;;;;;;;6.85;1.30;;;18.10;99.90;;;;;;5064204;28;20123;-79
2022/06/09 09:29:48;;;;;;;7.57;1.17;;;18.20;99.90;;;;;;5061855;28;20044;-77
2022/06/09 09:32:25;;;;;;;4.78;1.33;;;18.40;99.90;;;;;;5065176;28;20045;-75
2022/06/09 09:34:51;;;;;;;10.98;1.60;;;19.10;99.90;;;;;;5063781;28;20052;-79
2022/06/09 09:37:26;;;;;;;9.32;1.83;;;19.30;99.90;;;;;;5064392;28;20036;-78
2022/06/09 09:39:59;;;;;;;7.28;2.58;;;19.00;99.90;;;;;;5063578;28;20041;-78
2022/06/09 09:42:32;;;;;;;6.72;1.25;;;18.90;99.90;;;;;;5064105;28;20061;-77
2022/06/09 09:45:04;;;;;;;8.18;3.45;;;18.40;99.90;;;;;;5062799;28;20032;-78
2022/06/09 09:47:32;;;;;;;4.95;1.35;;;18.60;99.90;;;;;;5061549;28;20047;-77
2022/06/09 09:50:15;;;;;;;3.67;1.33;;;19.00;99.90;;;;;;5047407;28;20459;-75
2022/06/09 09:52:44;;;;;;;7.60;2.13;;;19.20;99.90;;;;;;5062799;28;20148;-77
2022/06/09 09:55:25;;;;;;;5.13;1.63;;;19.20;99.90;;;;;;5063316;28;20037;-76
2022/06/09 09:58:26;;;;;;;5.35;1.30;;;18.90;99.90;;;;;;5062588;28;20153;-79
2022/06/09 10:00:59;;;;;;;6.22;0.95;;;19.00;99.90;;;;;;5063035;28;20547;-77
2022/06/09 10:09:35;;;;;;;7.82;1.85;;;19.00;99.90;;;;;;5060608;28;20052;-78
2022/06/09 10:12:17;;;;;;;7.10;1.15;;;19.40;99.90;;;;;;5062179;28;20037;-77
2022/06/09 10:14:48;;;;;;;8.30;1.83;;;19.60;99.90;;;;;;5044059;28;20040;-78
2022/06/09 10:17:46;;;;;;;4.25;1.08;;;19.50;99.90;;;;;;5063775;28;20040;-78
2022/06/09 10:20:18;;;;;;;12.77;2.88;;;19.80;99.90;;;;;;5033969;28;20463;-79
2022/06/09 10:22:57;;;;;;;5.45;1.20;;;19.60;99.90;;;;;;5045861;28;20048;-77
2022/06/09 10:25:27;;;;;;;5.57;1.25;;;19.30;99.90;;;;;;5042518;28;20046;-77
2022/06/09 10:27:59;;;;;;;4.43;1.02;;;19.50;99.90;;;;;;5062193;28;20051;-78
2022/06/09 10:30:39;;;;;;;5.05;1.02;;;19.10;99.90;;;;;;5060678;28;20386;-79
2022/06/09 10:33:30;;;;;;;6.72;2.25;;;19.10;99.90;;;;;;5061894;28;20287;-77
2022/06/09 10:36:01;;;;;;;7.88;1.25;;;19.60;99.90;;;;;;5044321;28;20056;-78
2022/06/09 10:38:41;;;;;;;4.63;1.33;;;19.90;99.90;;;;;;5062604;28;20070;-78
2022/06/09 10:41:13;;;;;;;5.88;1.15;;;20.00;99.90;;;;;;5041492;28;20029;-77
2022/06/09 10:43:45;;;;;;;3.25;1.02;;;20.20;99.90;;;;;;5062227;28;20329;-76
2022/06/09 10:46:45;;;;;;;4.30;1.83;;;20.40;99.90;;;;;;5059857;28;20048;-78
2022/06/09 10:55:26;;;;;;;8.68;0.88;;;19.80;99.90;;;;;;5042355;28;20467;-78
2022/06/09 10:58:20;;;;;;;6.60;1.42;;;19.90;99.90;;;;;;5062462;28;20472;-77
2022/06/09 11:00:50;;;;;;;5.47;1.35;;;20.00;99.90;;;;;;5057732;28;20075;-78
2022/06/09 11:03:21;;;;;;;4.82;2.35;;;19.60;99.90;;;;;;5059240;28;20452;-78
2022/06/09 11:05:55;;;;;;;7.75;1.50;;;19.70;99.90;;;;;;5043413;28;20518;-78
2022/06/09 11:08:54;;;;;;;5.28;1.20;;;19.50;99.90;;;;;;5043354;28;20044;-86
2022/06/09 11:11:33;;;;;;;5.93;2.13;;;19.50;99.90;;;;;;5060260;28;20041;-79
2022/06/09 11:14:32;;;;;;;7.55;1.45;;;19.60;99.90;;;;;;5062285;28;20110;-79
2022/06/09 11:17:03;;;;;;;4.90;1.67;;;19.30;99.90;;;;;;5057764;28;20129;-80
2022/06/09 11:19:54;;;;;;;6.45;2.30;;;19.20;99.90;;;;;;5044889;28;20050;-81
2022/06/09 11:22:22;;;;;;;8.95;1.83;;;19.30;99.90;;;;;;5043539;28;20040;-78
2022/06/09 11:25:00;;;;;;;4.07;1.40;;;18.80;99.90;;;;;;5045273;28;20117;-81
2022/06/09 11:27:53;;;;;;;9.40;1.15;;;19.20;99.90;;;;;;5033126;28;20049;-81
2022/06/09 11:30:40;;;;;;;5.60;1.10;;;19.50;99.90;;;;;;5054853;28;20048;-80
2022/06/09 11:33:35;;;;;;;5.10;0.85;;;19.70;99.90;;;;;;5059821;28;20522;-79
2022/06/09 11:36:15;;;;;;;6.13;1.13;;;20.30;99.90;;;;;;5043405;28;20045;-75
2022/06/09 11:38:51;;;;;;;6.18;1.35;;;20.40;99.90;;;;;;5060394;28;20044;-80
2022/06/09 11:41:35;;;;;;;7.30;1.42;;;20.00;99.90;;;;;;5061525;28;20044;-80
2022/06/09 11:44:42;;;;;;;3.58;0.95;;;20.20;99.90;;;;;;5061611;28;20052;-79
2022/06/09 11:47:17;;;;;;;3.95;1.13;;;19.90;99.90;;;;;;4963150;28;20054;-81
2022/06/09 11:49:50;;;;;;;7.93;2.55;;;20.30;99.90;;;;;;5030572;28;20052;-80
2022/06/09 11:52:24;;;;;;;8.55;1.67;;;20.50;99.90;;;;;;5054248;28;20041;-80
2022/06/09 11:54:51;;;;;;;4.50;1.08;;;20.30;99.90;;;;;;5058733;28;20136;-83
2022/06/09 11:57:16;;;;;;;4.68;1.00;;;20.30;99.90;;;;;;5036437;28;20059;-78
2022/06/09 11:59:58;;;;;;;6.35;1.50;;;20.20;99.90;;;;;;5055733;28;20407;-78
2022/06/09 12:02:53;;;;;;;4.47;2.10;;;19.70;99.90;;;;;;5061464;28;20053;-77
2022/06/09 12:05:47;;;;;;;4.55;1.08;;;19.40;99.90;;;;;;5062289;28;20506;-76
2022/06/09 12:08:46;;;;;;;18.17;3.10;;;19.30;99.90;;;;;;5056541;28;20077;-78
2022/06/09 12:11:18;;;;;;;4.50;1.05;;;19.40;99.90;;;;;;5054451;28;20375;-78
2022/06/09 12:13:44;;;;;;;4.13;1.02;;;19.50;99.90;;;;;;5043987;28;20044;-78
2022/06/09 12:16:31;;;;;;;6.15;1.23;;;19.70;99.90;;;;;;5061920;28;20123;-77
2022/06/09 12:19:18;;;;;;;8.88;1.33;;;19.80;99.90;;;;;;5056069;28;20087;-79
2022/06/09 12:21:54;;;;;;;3.38;1.50;;;20.20;99.90;;;;;;5062356;28;20057;-77
2022/06/09 12:24:22;;;;;;;5.53;0.98;;;20.50;99.90;;;;;;5054395;28;20384;-77
2022/06/09 12:27:32;;;;;;;2.90;1.10;;;20.20;99.90;;;;;;5059691;28;20032;-75
2022/06/09 12:29:57;;;;;;;4.90;1.13;;;20.40;99.90;;;;;;4978471;28;20610;-78
2022/06/09 12:33:13;;;;;;;5.15;1.05;;;20.40;99.90;;;;;;4978385;28;20046;-78
2022/06/09 12:36:36;;;;;;;7.97;1.08;;;19.60;99.90;;;;;;5047129;28;20056;-76
2022/06/09 12:39:21;;;;;;;7.28;1.75;;;19.90;99.90;;;;;;4979674;28;20042;-79
2022/06/09 12:42:03;;;;;;;5.15;0.82;;;20.30;99.90;;;;;;4983186;28;20046;-77
2022/06/09 12:44:53;;;;;;;7.38;2.20;;;20.10;99.90;;;;;;5050083;28;20064;-79
2022/06/09 12:47:23;;;;;;;4.60;1.50;;;20.50;99.90;;;;;;5064626;28;20033;-75
2022/06/09 12:49:56;;;;;;;;;;;20.30;99.90;;;;;;5064218;28;20086;-75
2022/06/09 12:52:32;;;;;;;3.72;0.63;;;20.40;99.90;;;;;;5062591;28;19920;-77
2022/06/09 12:55:05;;;;;;;7.63;1.70;;;20.10;99.90;;;;;;5044505;28;20443;-77
2022/06/09 12:57:34;;;;;;;4.40;1.73;;;20.30;99.90;;;;;;5059616;28;20087;-77
2022/06/09 13:00:33;;;;;;;6.05;1.40;;;20.30;99.90;;;;;;5062913;28;20045;-77
2022/06/09 13:02:58;;;;;;;6.63;1.30;;;20.70;99.90;;;;;;5049923;28;20062;-76
2022/06/09 13:05:28;;;;;;;4.57;1.10;;;19.80;99.90;;;;;;5040707;28;20037;-76
2022/06/09 13:08:00;;;;;;;3.73;0.90;;;19.90;99.90;;;;;;5060482;28;20032;-76
2022/06/09 13:10:33;;;;;;;7.03;1.10;;;20.10;99.90;;;;;;5062347;28;20305;-77
2022/06/09 13:13:05;;;;;;;2.90;0.80;;;20.30;99.90;;;;;;5056659;28;20053;-77
2022/06/09 13:15:33;;;;;;;6.40;1.05;;;20.30;99.90;;;;;;5048078;28;20039;-79
2022/06/09 13:18:22;;;;;;;4.60;1.17;;;20.20;99.90;;;;;;5057473;28;20055;-76